createdAt,value
2022-08-05T00:01:56.264Z,25.04
2022-08-05T00:06:02.764Z,25.03
2022-08-05T00:08:34.305Z,25.02
2022-08-05T00:11:49.534Z,25.00
2022-08-05T00:14:58.058Z,25.02
2022-08-05T00:18:00.135Z,25.02
2022-08-05T00:21:06.779Z,24.95
2022-08-05T00:24:11.260Z,25.02
2022-08-05T00:27:21.062Z,25.03
2022-08-05T00:30:32.094Z,25.04
2022-08-05T00:34:55.196Z,25.03
2022-08-05T00:37:12.636Z,25.04
2022-08-05T00:40:17.764Z,25.03
2022-08-05T00:43:46.670Z,25.04
2022-08-05T00:46:54.111Z,25.04
2022-08-05T00:50:04.673Z,25.03
2022-08-05T00:53:09.874Z,25.01
2022-08-05T00:56:29.770Z,24.97
2022-08-05T00:59:42.035Z,24.97
2022-08-05T01:02:46.727Z,24.98
2022-08-05T01:05:54.697Z,24.98
2022-08-05T01:08:57.094Z,24.97
2022-08-05T01:12:17.882Z,24.93
2022-08-05T01:15:35.366Z,24.97
2022-08-05T01:18:43.367Z,24.97
2022-08-05T01:22:24.052Z,24.98
2022-08-05T01:25:40.922Z,25.00
2022-08-05T01:28:55.512Z,25.00
2022-08-05T01:32:02.848Z,24.99
2022-08-05T01:35:13.357Z,24.99
2022-08-05T01:38:37.950Z,24.99
2022-08-05T01:41:44.468Z,25.00
2022-08-05T01:44:54.274Z,25.00
2022-08-05T01:47:57.483Z,24.94
2022-08-05T01:51:00.224Z,24.92
2022-08-05T01:54:18.146Z,24.91
2022-08-05T01:58:09.564Z,24.90
2022-08-05T02:00:51.091Z,24.81
2022-08-05T02:03:55.714Z,24.90
2022-08-05T02:06:59.946Z,24.90
2022-08-05T02:10:07.966Z,24.86
2022-08-05T02:13:16.856Z,24.89
2022-08-05T02:16:44.758Z,24.87
2022-08-05T02:19:53.119Z,24.82
2022-08-05T02:22:59.769Z,24.88
2022-08-05T02:26:05.379Z,24.84
2022-08-05T02:29:21.349Z,24.93
2022-08-05T02:32:29.428Z,24.94
2022-08-05T02:35:38.600Z,24.92
2022-08-05T02:38:55.172Z,24.90
2022-08-05T02:42:01.217Z,24.90
2022-08-05T02:45:04.675Z,24.90
2022-08-05T02:48:12.767Z,24.89
2022-08-05T02:51:15.943Z,24.89
2022-08-05T02:54:35.580Z,24.89
2022-08-05T02:58:10.887Z,24.85
2022-08-05T03:01:02.963Z,24.88
2022-08-05T03:04:14.120Z,24.84
2022-08-05T03:07:40.430Z,24.89
2022-08-05T03:10:44.559Z,24.89
2022-08-05T03:14:07.961Z,24.90
2022-08-05T03:17:10.165Z,24.90
2022-08-05T03:20:13.388Z,24.91
2022-08-05T03:23:16.165Z,24.93
2022-08-05T03:26:32.093Z,24.92
2022-08-05T03:29:45.692Z,24.93
2022-08-05T03:32:57.382Z,24.90
2022-08-05T03:36:00.291Z,24.88
2022-08-05T03:39:08.541Z,24.89
2022-08-05T03:42:21.983Z,24.90
2022-08-05T03:45:29.788Z,24.90
2022-08-05T03:48:51.697Z,24.92
2022-08-05T03:52:38.144Z,24.92
2022-08-05T03:56:06.119Z,24.90
2022-08-05T03:58:52.799Z,24.89
2022-08-05T04:01:59.090Z,24.92
2022-08-05T04:05:02.745Z,24.96
2022-08-05T04:08:29.938Z,24.97
2022-08-05T04:11:50.470Z,24.95
2022-08-05T04:14:54.704Z,24.98
2022-08-05T04:18:02.942Z,25.02
2022-08-05T04:21:11.034Z,25.01
2022-08-05T04:24:19.179Z,25.03
2022-08-05T04:27:41.695Z,25.03
2022-08-05T04:30:46.224Z,25.05
2022-08-05T04:34:18.713Z,25.04
2022-08-05T04:37:12.718Z,25.04
2022-08-05T04:40:14.884Z,25.04
2022-08-05T04:43:22.081Z,25.04
2022-08-05T04:46:28.238Z,25.04
2022-08-05T04:49:38.990Z,25.02
2022-08-05T04:52:52.886Z,25.07
2022-08-05T04:56:15.367Z,24.98
2022-08-05T04:59:24.344Z,24.90
2022-08-05T05:02:41.934Z,25.02
2022-08-05T05:06:39.450Z,25.03
2022-08-05T05:09:07.578Z,25.04
2022-08-05T05:12:09.832Z,25.03
2022-08-05T05:15:13.643Z,25.03
2022-08-05T05:18:31.482Z,25.03
2022-08-05T05:21:36.202Z,25.07
2022-08-05T05:24:59.075Z,25.06
2022-08-05T05:28:01.991Z,25.04
2022-08-05T05:31:05.622Z,25.07
2022-08-05T05:34:10.854Z,25.04
2022-08-05T05:37:16.263Z,25.04
2022-08-05T05:40:20.390Z,24.98
2022-08-05T05:43:58.444Z,25.01
2022-08-05T05:46:50.289Z,25.09
2022-08-05T05:49:56.744Z,25.19
2022-08-05T05:53:03.384Z,25.16
2022-08-05T05:56:31.325Z,25.12
2022-08-05T05:59:40.090Z,25.14
2022-08-05T06:02:43.003Z,25.16
2022-08-05T06:05:45.194Z,25.18
2022-08-05T06:08:56.356Z,25.16
2022-08-05T06:12:00.012Z,25.21
2022-08-05T06:15:06.248Z,25.23
2022-08-05T06:18:10.177Z,25.32
2022-08-05T06:21:18.527Z,25.36
2022-08-05T06:24:25.706Z,25.42
2022-08-05T06:28:11.728Z,25.38
2022-08-05T06:30:51.576Z,25.42
2022-08-05T06:34:07.338Z,25.44
2022-08-05T06:37:10.955Z,25.47
2022-08-05T06:40:20.914Z,25.49
2022-08-05T06:43:58.163Z,25.51
2022-08-05T06:46:45.417Z,25.60
2022-08-05T06:50:01.074Z,25.59
2022-08-05T06:53:19.505Z,25.65
2022-08-05T06:56:27.268Z,25.68
2022-08-05T06:59:29.406Z,25.73
2022-08-05T07:02:48.080Z,25.74
2022-08-05T07:05:56.411Z,25.78
2022-08-05T07:09:00.029Z,25.82
2022-08-05T07:12:06.892Z,25.87
2022-08-05T07:15:34.606Z,25.86
2022-08-05T07:18:50.598Z,25.86
2022-08-05T07:21:59.881Z,25.84
2022-08-05T07:25:21.850Z,25.87
2022-08-05T07:28:26.395Z,25.88
2022-08-05T07:31:40.701Z,25.92
2022-08-05T07:34:50.617Z,25.97
2022-08-05T07:38:00.075Z,26.02
2022-08-05T07:42:06.762Z,26.17
2022-08-05T07:44:30.183Z,26.22
2022-08-05T07:47:42.199Z,26.25
2022-08-05T07:50:44.804Z,26.28
2022-08-05T07:53:50.632Z,26.26
2022-08-05T07:57:02.057Z,26.30
2022-08-05T08:00:15.633Z,26.30
2022-08-05T08:03:18.807Z,26.26
2022-08-05T08:06:23.684Z,26.33
2022-08-05T08:09:30.266Z,26.33
2022-08-05T08:12:49.205Z,26.35
2022-08-05T08:16:34.856Z,26.38
2022-08-05T08:19:37.924Z,26.47
2022-08-05T08:22:36.157Z,26.49
2022-08-05T08:26:00.825Z,26.53
2022-08-05T08:29:21.894Z,26.49
2022-08-05T08:32:27.826Z,26.52
2022-08-05T08:35:35.112Z,26.61
2022-08-05T08:38:43.213Z,26.63
2022-08-05T08:41:59.903Z,26.58
2022-08-05T08:45:20.238Z,26.61
2022-08-05T08:48:41.654Z,26.66
2022-08-05T08:52:14.394Z,26.69
2022-08-05T08:55:19.456Z,26.71
2022-08-05T08:58:37.068Z,26.82
2022-08-05T09:01:42.566Z,26.86
2022-08-05T09:04:58.117Z,26.97
2022-08-05T09:08:09.751Z,27.02
2022-08-05T09:11:13.867Z,27.01
2022-08-05T09:14:56.508Z,26.97
2022-08-05T09:17:42.410Z,26.90
2022-08-05T09:20:51.595Z,26.92
2022-08-05T09:24:13.239Z,27.01
2022-08-05T09:28:04.105Z,27.01
2022-08-05T09:30:56.760Z,27.09
2022-08-05T09:34:16.460Z,27.13
2022-08-05T09:38:17.654Z,27.17
2022-08-05T09:41:16.313Z,27.17
2022-08-05T09:44:36.581Z,27.10
2022-08-05T09:47:55.689Z,27.05
2022-08-05T09:51:14.821Z,26.93
2022-08-05T09:54:35.559Z,27.06
2022-08-05T09:57:43.190Z,27.04
2022-08-05T10:00:59.479Z,27.17
2022-08-05T10:04:16.073Z,27.31
2022-08-05T10:08:11.158Z,27.31
2022-08-05T10:10:44.343Z,27.40
2022-08-05T10:13:49.259Z,27.41
2022-08-05T10:16:53.500Z,27.40
2022-08-05T10:20:04.471Z,27.41
2022-08-05T10:23:22.196Z,27.42
2022-08-05T10:26:37.414Z,27.43
2022-08-05T10:31:19.814Z,27.45
2022-08-05T10:33:14.654Z,27.40
2022-08-05T10:36:17.348Z,27.47
2022-08-05T10:39:59.194Z,27.53
2022-08-05T10:43:04.709Z,27.47
2022-08-05T10:46:17.817Z,27.59
2022-08-05T10:49:27.122Z,27.66
2022-08-05T10:52:49.656Z,27.64
2022-08-05T10:56:21.078Z,27.51
2022-08-05T11:00:02.075Z,27.48
2022-08-05T11:03:26.006Z,27.43
2022-08-05T11:06:31.042Z,27.30
2022-08-05T11:09:49.538Z,27.46
2022-08-05T11:12:54.934Z,27.51
2022-08-05T11:16:47.730Z,27.50
2022-08-05T11:20:16.813Z,27.40
2022-08-05T11:23:49.915Z,27.41
2022-08-05T11:27:11.235Z,27.55
2022-08-05T11:30:14.070Z,27.57
2022-08-05T11:33:46.485Z,27.66
2022-08-05T11:36:52.933Z,27.75
2022-08-05T11:40:03.377Z,27.76
2022-08-05T11:43:07.006Z,27.82
2022-08-05T11:46:15.084Z,27.93
2022-08-05T11:49:34.541Z,27.89
2022-08-05T11:52:39.770Z,27.85
2022-08-05T11:55:59.881Z,27.90
2022-08-05T11:59:01.891Z,27.83
2022-08-05T12:02:24.179Z,27.80
2022-08-05T12:05:36.418Z,27.70
2022-08-05T12:08:50.924Z,27.66
2022-08-05T12:11:54.446Z,27.64
2022-08-05T12:14:59.930Z,27.62
2022-08-05T12:18:03.685Z,27.60
2022-08-05T12:21:21.762Z,27.67
2022-08-05T12:24:30.111Z,27.72
2022-08-05T12:27:35.607Z,27.76
2022-08-05T12:30:56.942Z,27.85
2022-08-05T12:33:59.212Z,27.93
2022-08-05T12:37:17.703Z,27.93
2022-08-05T12:40:29.591Z,27.97
2022-08-05T12:43:32.331Z,28.09
2022-08-05T12:46:35.693Z,28.10
2022-08-05T12:50:03.564Z,28.14
2022-08-05T12:53:08.335Z,28.31
2022-08-05T12:56:35.167Z,28.29
2022-08-05T13:02:01.312Z,28.35
2022-08-05T13:03:15.443Z,28.44
2022-08-05T13:06:18.195Z,28.54
2022-08-05T13:09:28.305Z,28.55
2022-08-05T13:12:30.944Z,28.59
2022-08-05T13:15:41.111Z,28.59
2022-08-05T13:18:58.449Z,28.48
2022-08-05T13:22:01.083Z,28.48
2022-08-05T13:25:19.526Z,28.48
2022-08-05T13:28:24.191Z,28.59
2022-08-05T13:31:33.889Z,28.58
2022-08-05T13:34:49.450Z,28.68
2022-08-05T13:37:55.519Z,28.76
2022-08-05T13:40:58.220Z,28.77
2022-08-05T13:44:00.622Z,28.80
2022-08-05T13:47:08.813Z,28.75
2022-08-05T13:50:16.231Z,28.80
2022-08-05T13:53:18.816Z,28.84
2022-08-05T13:56:20.859Z,28.90
2022-08-05T13:59:27.082Z,28.85
2022-08-05T14:02:29.833Z,28.87
2022-08-05T14:06:25.013Z,28.94
2022-08-05T14:08:55.365Z,28.98
2022-08-05T14:12:03.960Z,28.94
2022-08-05T14:16:07.797Z,28.86
2022-08-05T14:18:42.269Z,28.74
2022-08-05T14:22:08.903Z,28.61
2022-08-05T14:25:21.952Z,28.59
2022-08-05T14:28:26.933Z,28.60
2022-08-05T14:32:03.885Z,28.67
2022-08-05T14:34:52.313Z,28.61
2022-08-05T14:37:55.653Z,28.52
2022-08-05T14:40:58.002Z,28.63
2022-08-05T14:44:09.702Z,28.54
2022-08-05T14:47:12.180Z,28.55
2022-08-05T14:50:19.119Z,28.61
2022-08-05T14:53:21.663Z,28.60
2022-08-05T14:56:24.016Z,28.70
2022-08-05T14:59:29.425Z,28.75
2022-08-05T15:02:37.305Z,28.75
2022-08-05T15:06:13.283Z,28.78
2022-08-05T15:09:51.448Z,28.84
2022-08-05T15:13:01.117Z,28.73
2022-08-05T15:16:16.253Z,28.59
2022-08-05T15:19:23.837Z,28.55
2022-08-05T15:22:27.299Z,28.50
2022-08-05T15:25:53.053Z,28.48
2022-08-05T15:28:52.345Z,28.47
2022-08-05T15:31:54.419Z,28.34
2022-08-05T15:34:57.872Z,28.30
2022-08-05T15:38:32.562Z,28.19
2022-08-05T15:41:24.739Z,28.19
2022-08-05T15:44:51.202Z,28.15
2022-08-05T15:47:57.540Z,28.16
2022-08-05T15:51:01.559Z,28.11
2022-08-05T15:54:08.390Z,28.09
2022-08-05T15:57:10.601Z,28.05
2022-08-05T16:00:13.341Z,27.98
2022-08-05T16:03:19.027Z,27.98
2022-08-05T16:06:23.283Z,27.94
2022-08-05T16:09:25.763Z,27.95
2022-08-05T16:12:27.726Z,27.92
2022-08-05T16:15:32.469Z,27.85
2022-08-05T16:18:34.862Z,27.84
2022-08-05T16:22:03.096Z,27.82
2022-08-05T16:25:09.715Z,27.75
2022-08-05T16:28:14.157Z,27.74
2022-08-05T16:31:17.790Z,27.73
2022-08-05T16:34:22.424Z,27.72
2022-08-05T16:38:03.656Z,27.64
2022-08-05T16:40:55.661Z,27.62
2022-08-05T16:44:16.928Z,27.61
2022-08-05T16:47:28.682Z,27.58
2022-08-05T16:50:38.133Z,27.55
2022-08-05T16:54:02.502Z,27.53
2022-08-05T16:57:03.744Z,27.53
2022-08-05T17:00:10.622Z,27.55
2022-08-05T17:03:19.868Z,27.47
2022-08-05T17:06:24.475Z,27.45
2022-08-05T17:09:38.951Z,27.36
2022-08-05T17:12:55.581Z,27.34
2022-08-05T17:16:13.199Z,27.32
2022-08-05T17:19:19.766Z,27.24
2022-08-05T17:22:25.326Z,27.18
2022-08-05T17:25:33.769Z,27.16
2022-08-05T17:28:36.528Z,27.13
2022-08-05T17:31:57.019Z,27.09
2022-08-05T17:35:07.423Z,26.93
2022-08-05T17:38:10.011Z,26.95
2022-08-05T17:42:18.348Z,26.98
2022-08-05T17:44:50.981Z,26.94
2022-08-05T17:47:56.012Z,26.90
2022-08-05T17:50:58.268Z,26.88
2022-08-05T17:54:00.484Z,26.84
2022-08-05T17:57:02.487Z,26.80
2022-08-05T18:00:06.101Z,26.80
2022-08-05T18:03:09.038Z,26.78
2022-08-05T18:06:15.357Z,26.78
2022-08-05T18:09:17.743Z,26.74
2022-08-05T18:12:24.001Z,26.71
2022-08-05T18:15:27.728Z,26.67
2022-08-05T18:18:34.136Z,26.65
2022-08-05T18:22:07.114Z,26.62
2022-08-05T18:25:05.082Z,26.53
2022-08-05T18:28:09.277Z,26.57
2022-08-05T18:31:23.555Z,26.46
2022-08-05T18:34:35.050Z,26.52
2022-08-05T18:37:43.757Z,26.50
2022-08-05T18:41:58.285Z,26.48
2022-08-05T18:44:08.930Z,26.47
2022-08-05T18:47:12.138Z,26.45
2022-08-05T18:50:44.879Z,26.42
2022-08-05T18:53:50.169Z,26.39
2022-08-05T18:56:52.649Z,26.33
2022-08-05T19:00:01.470Z,26.34
2022-08-05T19:03:05.739Z,26.32
2022-08-05T19:06:19.981Z,26.30
2022-08-05T19:09:46.504Z,26.19
2022-08-05T19:12:49.227Z,26.23
2022-08-05T19:15:57.696Z,26.24
2022-08-05T19:19:21.175Z,26.24
2022-08-05T19:22:27.795Z,26.22
2022-08-05T19:25:41.982Z,26.15
2022-08-05T19:28:45.737Z,26.19
2022-08-05T19:31:51.020Z,26.19
2022-08-05T19:34:55.300Z,26.18
2022-08-05T19:38:06.258Z,26.16
2022-08-05T19:41:09.295Z,26.15
2022-08-05T19:44:13.651Z,26.13
2022-08-05T19:47:16.651Z,26.14
2022-08-05T19:50:20.118Z,26.11
2022-08-05T19:54:04.525Z,26.06
2022-08-05T19:56:48.264Z,26.08
2022-08-05T20:00:00.955Z,26.03
2022-08-05T20:03:13.403Z,26.03
2022-08-05T20:06:29.023Z,26.02
2022-08-05T20:09:53.619Z,26.00
2022-08-05T20:12:55.021Z,26.01
2022-08-05T20:15:57.793Z,25.99
2022-08-05T20:19:00.718Z,25.97
2022-08-05T20:22:03.699Z,25.99
2022-08-05T20:25:07.797Z,26.01
2022-08-05T20:28:14.561Z,26.00
2022-08-05T20:31:21.676Z,25.98
2022-08-05T20:34:30.757Z,25.99
2022-08-05T20:38:05.610Z,25.98
2022-08-05T20:40:55.538Z,25.96
2022-08-05T20:44:03.487Z,25.94
2022-08-05T20:47:17.629Z,25.92
2022-08-05T20:50:21.146Z,25.92
2022-08-05T20:53:36.630Z,25.91
2022-08-05T20:56:43.007Z,25.91
2022-08-05T20:59:46.208Z,25.90
2022-08-05T21:03:07.945Z,25.89
2022-08-05T21:06:28.610Z,25.87
2022-08-05T21:09:31.681Z,25.87
2022-08-05T21:12:36.783Z,25.89
2022-08-05T21:15:41.302Z,25.89
2022-08-05T21:18:48.524Z,25.87
2022-08-05T21:21:51.300Z,25.87
2022-08-05T21:24:54.836Z,25.85
2022-08-05T21:27:56.959Z,25.86
2022-08-05T21:30:59.409Z,25.84
2022-08-05T21:34:01.366Z,25.85
2022-08-05T21:37:05.112Z,25.83
2022-08-05T21:40:13.892Z,25.81
2022-08-05T21:43:24.010Z,25.80
2022-08-05T21:46:26.900Z,25.77
2022-08-05T21:49:48.136Z,25.79
2022-08-05T21:52:53.479Z,25.80
2022-08-05T21:56:05.986Z,25.78
2022-08-05T21:59:24.129Z,25.80
2022-08-05T22:02:28.317Z,25.79
2022-08-05T22:05:30.315Z,25.79
2022-08-05T22:08:52.465Z,25.79
2022-08-05T22:11:54.751Z,25.81
2022-08-05T22:14:59.132Z,25.75
2022-08-05T22:18:01.966Z,25.81
2022-08-05T22:21:04.950Z,25.79
2022-08-05T22:24:52.522Z,25.79
2022-08-05T22:28:10.995Z,25.79
2022-08-05T22:31:13.929Z,25.77
2022-08-05T22:34:25.599Z,25.72
2022-08-05T22:37:57.973Z,25.74
2022-08-05T22:40:54.829Z,25.73
2022-08-05T22:43:59.385Z,25.72
2022-08-05T22:47:01.479Z,25.74
2022-08-05T22:50:21.821Z,25.72
2022-08-05T22:53:25.742Z,25.72
2022-08-05T22:56:40.019Z,25.72
2022-08-05T22:59:50.386Z,25.73
2022-08-05T23:02:56.361Z,25.73
2022-08-05T23:06:00.147Z,25.73
2022-08-05T23:09:24.691Z,25.73
2022-08-05T23:12:25.864Z,25.73
2022-08-05T23:15:35.374Z,25.74
2022-08-05T23:18:38.507Z,25.73
2022-08-05T23:21:43.073Z,25.65
2022-08-05T23:24:51.428Z,25.72
2022-08-05T23:28:00.281Z,25.72
2022-08-05T23:31:16.152Z,25.71
2022-08-05T23:34:24.766Z,25.69
2022-08-05T23:37:27.347Z,25.69
2022-08-05T23:40:38.982Z,25.68
2022-08-05T23:44:05.906Z,25.67
2022-08-05T23:47:15.575Z,25.66
2022-08-05T23:50:20.197Z,25.67
2022-08-05T23:53:23.293Z,25.68
2022-08-05T23:56:30.619Z,25.67
